createdAt,value
2022-09-26T00:01:17.672Z,99612.46
2022-09-26T00:03:52.096Z,99612.77
2022-09-26T00:06:20.681Z,99609.39
2022-09-26T00:08:49.082Z,99609.11
2022-09-26T00:11:20.307Z,99608.55
2022-09-26T00:13:53.044Z,99604.59
2022-09-26T00:16:20.644Z,99598.44
2022-09-26T00:18:49.638Z,99594.98
2022-09-26T00:21:17.709Z,99586.90
2022-09-26T00:23:44.887Z,99583.38
2022-09-26T00:26:13.658Z,99584.29
2022-09-26T00:28:40.996Z,99585.09
2022-09-26T00:31:22.428Z,99587.94
2022-09-26T00:33:49.587Z,99585.46
2022-09-26T00:36:16.782Z,99585.05
2022-09-26T00:38:43.988Z,99582.52
2022-09-26T00:41:12.040Z,99582.90
2022-09-26T00:43:44.786Z,99580.50
2022-09-26T00:46:39.846Z,99581.31
2022-09-26T00:49:28.561Z,99574.02
2022-09-26T00:52:08.659Z,99575.22
2022-09-26T00:54:38.428Z,99574.59
2022-09-26T00:57:10.830Z,99574.56
2022-09-26T00:59:43.344Z,99578.36
2022-09-26T01:02:11.578Z,99582.05
2022-09-26T01:04:41.940Z,99576.85
2022-09-26T01:07:16.836Z,99579.83
2022-09-26T01:09:44.724Z,99576.79
2022-09-26T01:12:13.111Z,99574.13
2022-09-26T01:14:41.586Z,99574.00
2022-09-26T01:17:10.462Z,99571.86
2022-09-26T01:19:57.300Z,99570.46
2022-09-26T01:23:01.795Z,99568.70
2022-09-26T01:25:58.212Z,99566.16
2022-09-26T01:28:43.641Z,99563.67
2022-09-26T01:32:09.032Z,99563.08
2022-09-26T01:34:52.992Z,99564.05
2022-09-26T01:37:22.731Z,99557.64
2022-09-26T01:40:31.287Z,99556.39
2022-09-26T01:43:15.856Z,99556.13
2022-09-26T01:45:56.773Z,99556.84
2022-09-26T01:48:50.222Z,99553.05
2022-09-26T01:51:39.021Z,99547.23
2022-09-26T01:54:13.551Z,99546.88
2022-09-26T01:56:45.600Z,99548.45
2022-09-26T01:59:22.919Z,99546.05
2022-09-26T02:01:53.177Z,99548.98
2022-09-26T02:04:25.661Z,99548.45
2022-09-26T02:07:00.496Z,99547.80
2022-09-26T02:09:42.393Z,99548.66
2022-09-26T02:12:13.101Z,99547.34
2022-09-26T02:14:41.472Z,99547.95
2022-09-26T02:17:12.745Z,99548.27
2022-09-26T02:19:50.630Z,99547.34
2022-09-26T02:22:18.415Z,99552.27
2022-09-26T02:24:45.431Z,99548.70
2022-09-26T02:27:12.857Z,99552.73
2022-09-26T02:29:40.226Z,99553.56
2022-09-26T02:32:15.670Z,99551.63
2022-09-26T02:34:46.958Z,99554.41
2022-09-26T02:37:16.268Z,99546.22
2022-09-26T02:39:45.406Z,99542.82
2022-09-26T02:42:36.378Z,99542.95
2022-09-26T02:45:29.358Z,99543.06
2022-09-26T02:47:56.436Z,99537.89
2022-09-26T02:50:41.859Z,99540.91
2022-09-26T02:53:17.890Z,99542.04
2022-09-26T02:56:11.144Z,99539.96
2022-09-26T02:58:54.291Z,99546.00
2022-09-26T03:01:34.676Z,99543.59
2022-09-26T03:04:29.573Z,99538.56
2022-09-26T03:07:02.761Z,99533.04
2022-09-26T03:09:31.763Z,99541.38
2022-09-26T03:12:02.245Z,99538.27
2022-09-26T03:14:32.836Z,99540.98
2022-09-26T03:17:01.400Z,99534.34
2022-09-26T03:19:41.110Z,99531.77
2022-09-26T03:22:08.992Z,99529.15
2022-09-26T03:24:36.799Z,99531.40
2022-09-26T03:27:05.821Z,99534.27
2022-09-26T03:29:33.109Z,99527.84
2022-09-26T03:32:00.678Z,99522.11
2022-09-26T03:34:28.354Z,99515.81
2022-09-26T03:36:55.308Z,99511.80
2022-09-26T03:39:22.442Z,99510.34
2022-09-26T03:41:49.698Z,99510.11
2022-09-26T03:44:17.118Z,99507.17
2022-09-26T03:46:44.006Z,99500.45
2022-09-26T03:49:11.752Z,99499.82
2022-09-26T03:51:38.730Z,99498.83
2022-09-26T03:54:05.797Z,99505.75
2022-09-26T03:56:32.742Z,99501.40
2022-09-26T03:58:59.842Z,99505.12
2022-09-26T04:01:26.859Z,99501.69
2022-09-26T04:03:54.086Z,99501.04
2022-09-26T04:06:21.437Z,99507.33
2022-09-26T04:08:51.766Z,99507.89
2022-09-26T04:11:22.496Z,99507.73
2022-09-26T04:13:52.816Z,99505.20
2022-09-26T04:16:22.770Z,99507.97
2022-09-26T04:18:56.127Z,99506.08
2022-09-26T04:21:25.684Z,99510.77
2022-09-26T04:23:53.633Z,99513.86
2022-09-26T04:26:24.083Z,99512.83
2022-09-26T04:28:54.254Z,99507.34
2022-09-26T04:31:22.555Z,99504.45
2022-09-26T04:33:50.145Z,99497.90
2022-09-26T04:36:18.234Z,99500.13
2022-09-26T04:38:45.197Z,99500.80
2022-09-26T04:41:14.371Z,99501.30
2022-09-26T04:43:44.575Z,99499.95
2022-09-26T04:46:19.903Z,99501.19
2022-09-26T04:48:54.141Z,99502.41
2022-09-26T04:51:22.880Z,99498.63
2022-09-26T04:53:51.129Z,99496.15
2022-09-26T04:56:22.894Z,99499.50
2022-09-26T04:58:51.149Z,99499.07
2022-09-26T05:01:21.047Z,99498.55
2022-09-26T05:03:49.030Z,99498.33
2022-09-26T05:06:18.356Z,99497.69
2022-09-26T05:08:46.460Z,99496.06
2022-09-26T05:11:15.896Z,99489.14
2022-09-26T05:13:44.899Z,99489.38
2022-09-26T05:16:17.068Z,99485.34
2022-09-26T05:18:44.290Z,99486.76
2022-09-26T05:21:12.359Z,99482.55
2022-09-26T05:23:59.685Z,99486.77
2022-09-26T05:26:46.770Z,99490.50
2022-09-26T05:29:16.483Z,99490.99
2022-09-26T05:31:47.596Z,99492.39
2022-09-26T05:34:19.536Z,99490.52
2022-09-26T05:36:51.393Z,99484.98
2022-09-26T05:39:42.129Z,99483.48
2022-09-26T05:42:10.464Z,99482.85
2022-09-26T05:44:39.375Z,99476.41
2022-09-26T05:47:08.290Z,99471.70
2022-09-26T05:49:36.495Z,99464.40
2022-09-26T05:52:04.244Z,99466.75
2022-09-26T05:54:34.817Z,99466.68
2022-09-26T05:57:02.057Z,99464.61
2022-09-26T05:59:29.584Z,99465.41
2022-09-26T06:01:58.322Z,99463.61
2022-09-26T06:04:26.097Z,99467.71
2022-09-26T06:06:53.219Z,99470.92
2022-09-26T06:09:20.537Z,99473.24
2022-09-26T06:11:47.558Z,99474.32
2022-09-26T06:14:14.998Z,99476.91
2022-09-26T06:16:42.770Z,99472.00
2022-09-26T06:19:10.113Z,99472.61
2022-09-26T06:21:39.950Z,99470.58
2022-09-26T06:24:07.441Z,99471.60
2022-09-26T06:26:35.306Z,99474.61
2022-09-26T06:29:07.088Z,99472.74
2022-09-26T06:31:34.882Z,99468.07
2022-09-26T06:34:04.918Z,99470.41
2022-09-26T06:36:33.679Z,99472.70
2022-09-26T06:39:00.963Z,99469.19
2022-09-26T06:41:28.654Z,99470.48
2022-09-26T06:43:59.783Z,99472.58
2022-09-26T06:46:33.809Z,99475.73
2022-09-26T06:49:01.415Z,99478.48
2022-09-26T06:51:28.939Z,99476.36
2022-09-26T06:53:57.792Z,99480.85
2022-09-26T06:56:24.940Z,99481.06
2022-09-26T06:58:52.350Z,99480.13
2022-09-26T07:01:19.545Z,99480.46
2022-09-26T07:03:49.206Z,99489.15
2022-09-26T07:06:20.468Z,99485.30
2022-09-26T07:09:02.047Z,99487.70
2022-09-26T07:11:42.010Z,99487.14
2022-09-26T07:14:19.793Z,99485.33
2022-09-26T07:16:53.100Z,99488.52
2022-09-26T07:19:20.247Z,99491.63
2022-09-26T07:21:47.700Z,99492.64
2022-09-26T07:24:14.981Z,99488.45
2022-09-26T07:26:42.542Z,99483.55
2022-09-26T07:29:10.200Z,99481.21
2022-09-26T07:31:37.418Z,99480.18
2022-09-26T07:34:04.741Z,99479.48
2022-09-26T07:36:31.731Z,99479.43
2022-09-26T07:39:00.634Z,99484.60
2022-09-26T07:41:30.750Z,99480.23
2022-09-26T07:47:04.803Z,99485.77
2022-09-26T07:49:50.663Z,99481.80
2022-09-26T07:52:18.023Z,99481.92
2022-09-26T07:54:45.390Z,99480.02
2022-09-26T07:57:12.745Z,99482.06
2022-09-26T07:59:39.987Z,99474.42
2022-09-26T08:02:26.113Z,99474.30
2022-09-26T08:05:00.340Z,99477.36
2022-09-26T08:07:31.507Z,99477.17
2022-09-26T08:10:01.183Z,99477.77
2022-09-26T08:12:33.836Z,99481.48
2022-09-26T08:15:00.815Z,99475.60
2022-09-26T08:17:33.548Z,99474.66
2022-09-26T08:20:01.449Z,99475.30
2022-09-26T08:22:29.923Z,99472.28
2022-09-26T08:25:00.490Z,99468.33
2022-09-26T08:27:35.639Z,99469.06
2022-09-26T08:30:03.974Z,99465.50
2022-09-26T08:32:33.933Z,99466.73
2022-09-26T08:35:01.804Z,99466.89
2022-09-26T08:37:30.620Z,99469.98
2022-09-26T08:40:01.679Z,99470.93
2022-09-26T08:42:42.231Z,99472.92
2022-09-26T08:45:48.216Z,99468.98
2022-09-26T08:48:26.272Z,99467.73
2022-09-26T08:50:59.678Z,99462.42
2022-09-26T08:53:38.269Z,99459.02
2022-09-26T08:56:19.038Z,99458.45
2022-09-26T08:58:54.157Z,99452.52
2022-09-26T09:01:28.715Z,99446.82
2022-09-26T09:04:07.422Z,99444.08
2022-09-26T09:06:35.223Z,99440.11
2022-09-26T09:09:02.821Z,99432.11
2022-09-26T09:12:08.155Z,99435.65
2022-09-26T09:15:25.175Z,99428.88
2022-09-26T09:18:13.247Z,99421.97
2022-09-26T09:21:01.464Z,99419.45
2022-09-26T09:23:54.718Z,99419.70
2022-09-26T09:29:49.164Z,99420.88
2022-09-26T09:32:24.025Z,99417.93
2022-09-26T09:34:53.999Z,99417.67
2022-09-26T09:37:23.771Z,99412.81
2022-09-26T09:39:53.061Z,99418.02
2022-09-26T09:43:02.622Z,99415.94
2022-09-26T09:45:42.273Z,99412.23
2022-09-26T09:48:13.281Z,99409.73
2022-09-26T09:50:50.575Z,99409.02
2022-09-26T09:53:50.027Z,99407.84
2022-09-26T09:56:26.801Z,99402.94
2022-09-26T09:59:03.194Z,99402.85
2022-09-26T10:01:41.373Z,99402.17
2022-09-26T10:04:57.430Z,99401.50
2022-09-26T10:07:26.944Z,99403.99
2022-09-26T10:09:54.834Z,99399.41
2022-09-26T10:12:28.512Z,99403.73
2022-09-26T10:15:07.172Z,99400.96
2022-09-26T10:17:37.038Z,99398.33
2022-09-26T10:20:10.877Z,99393.86
2022-09-26T10:22:46.398Z,99390.39
2022-09-26T10:25:21.666Z,99391.70
2022-09-26T10:28:06.843Z,99390.59
2022-09-26T10:30:53.739Z,99390.41
2022-09-26T10:33:35.287Z,99381.50
2022-09-26T10:36:23.533Z,99380.96
2022-09-26T10:39:37.488Z,99374.95
2022-09-26T10:42:21.230Z,99373.41
2022-09-26T10:44:50.707Z,99375.23
2022-09-26T10:47:23.719Z,99374.95
2022-09-26T10:50:18.537Z,99374.66
2022-09-26T10:52:52.695Z,99370.46
2022-09-26T10:55:29.523Z,99372.79
2022-09-26T10:58:12.858Z,99368.83
2022-09-26T11:00:49.513Z,99371.09
2022-09-26T11:03:25.215Z,99366.86
2022-09-26T11:05:59.400Z,99365.17
2022-09-26T11:08:35.719Z,99364.66
2022-09-26T11:11:14.947Z,99359.48
2022-09-26T11:14:03.049Z,99367.54
2022-09-26T11:16:53.094Z,99366.92
2022-09-26T11:19:26.499Z,99363.42
2022-09-26T11:22:19.624Z,99359.16
2022-09-26T11:24:59.017Z,99359.02
2022-09-26T11:27:45.884Z,99351.36
2022-09-26T11:30:19.095Z,99348.09
2022-09-26T11:32:56.814Z,99344.04
2022-09-26T11:35:45.589Z,99336.38
2022-09-26T11:38:39.228Z,99338.64
2022-09-26T11:41:45.977Z,99335.02
2022-09-26T11:44:31.939Z,99336.37
2022-09-26T11:47:38.405Z,99334.23
2022-09-26T11:50:26.970Z,99329.08
2022-09-26T11:53:25.363Z,99330.45
2022-09-26T11:56:11.221Z,99325.05
2022-09-26T11:59:01.187Z,99322.64
2022-09-26T12:01:54.882Z,99319.59
2022-09-26T12:04:26.761Z,99323.67
2022-09-26T12:07:02.486Z,99315.98
2022-09-26T12:09:56.006Z,99312.93
2022-09-26T12:12:28.690Z,99316.13
2022-09-26T12:15:54.977Z,99312.14
2022-09-26T12:18:39.551Z,99305.77
2022-09-26T12:21:22.052Z,99306.08
2022-09-26T12:23:56.951Z,99303.85
2022-09-26T12:26:46.084Z,99297.30
2022-09-26T12:29:37.585Z,99292.02
2022-09-26T12:32:16.820Z,99285.19
2022-09-26T12:34:54.812Z,99291.12
2022-09-26T12:37:48.884Z,99285.34
2022-09-26T12:40:31.224Z,99283.08
2022-09-26T12:43:23.935Z,99276.98
2022-09-26T12:46:19.787Z,99274.56
2022-09-26T12:48:53.349Z,99270.96
2022-09-26T12:51:38.716Z,99266.04
2022-09-26T12:54:32.612Z,99267.88
2022-09-26T12:57:16.963Z,99264.52
2022-09-26T13:00:10.572Z,99266.20
2022-09-26T13:03:01.676Z,99267.71
2022-09-26T13:06:22.194Z,99258.30
2022-09-26T13:09:02.538Z,99255.06
2022-09-26T13:11:48.079Z,99254.55
2022-09-26T13:14:34.886Z,99254.38
2022-09-26T13:17:11.048Z,99258.83
2022-09-26T13:19:44.167Z,99253.76
2022-09-26T13:22:37.864Z,99249.56
2022-09-26T13:25:10.894Z,99251.04
2022-09-26T13:27:43.874Z,99250.15
2022-09-26T13:30:29.630Z,99249.15
2022-09-26T13:33:22.711Z,99241.69
2022-09-26T13:35:53.981Z,99240.10
2022-09-26T13:38:34.311Z,99237.55
2022-09-26T13:41:54.604Z,99238.81
2022-09-26T13:44:33.831Z,99236.09
2022-09-26T13:47:37.456Z,99236.66
2022-09-26T13:50:29.457Z,99229.02
2022-09-26T13:53:09.693Z,99228.15
2022-09-26T13:55:37.080Z,99223.44
2022-09-26T13:58:19.667Z,99220.58
2022-09-26T14:00:52.920Z,99223.75
2022-09-26T14:03:22.949Z,99224.53
2022-09-26T14:05:52.339Z,99225.57
2022-09-26T14:08:44.121Z,99224.95
2022-09-26T14:11:29.575Z,99219.92
2022-09-26T14:14:18.459Z,99217.84
2022-09-26T14:16:47.452Z,99219.33
2022-09-26T14:19:20.190Z,99218.19
2022-09-26T14:22:25.794Z,99217.48
2022-09-26T14:24:55.564Z,99215.22
2022-09-26T14:27:28.378Z,99214.38
2022-09-26T14:30:23.294Z,99213.58
2022-09-26T14:33:09.947Z,99211.55
2022-09-26T14:35:42.733Z,99206.11
2022-09-26T14:38:16.945Z,99206.95
2022-09-26T14:40:57.905Z,99210.01
2022-09-26T14:43:31.166Z,99210.88
2022-09-26T14:46:08.072Z,99212.58
2022-09-26T14:48:38.821Z,99212.32
2022-09-26T14:51:15.788Z,99213.70
2022-09-26T14:53:55.827Z,99208.97
2022-09-26T14:56:43.201Z,99214.58
2022-09-26T14:59:18.055Z,99214.99
2022-09-26T15:01:46.394Z,99215.77
2022-09-26T15:04:25.434Z,99214.77
2022-09-26T15:06:56.438Z,99216.77
2022-09-26T15:09:32.942Z,99213.41
2022-09-26T15:12:07.767Z,99215.05
2022-09-26T15:14:45.673Z,99217.95
2022-09-26T15:17:24.036Z,99215.84
2022-09-26T15:19:55.509Z,99218.35
2022-09-26T15:22:29.643Z,99216.23
2022-09-26T15:25:18.696Z,99213.75
2022-09-26T15:27:50.072Z,99221.59
2022-09-26T15:30:22.659Z,99218.59
2022-09-26T15:32:57.463Z,99219.70
2022-09-26T15:35:26.905Z,99222.73
2022-09-26T15:38:03.124Z,99216.36
2022-09-26T15:40:31.982Z,99219.97
2022-09-26T15:43:12.440Z,99220.20
2022-09-26T15:45:46.599Z,99223.09
2022-09-26T15:48:32.487Z,99224.91
2022-09-26T15:51:27.368Z,99222.63
2022-09-26T15:54:02.706Z,99223.38
2022-09-26T15:56:36.315Z,99219.14
2022-09-26T15:59:10.350Z,99222.02
2022-09-26T16:01:49.617Z,99222.05
2022-09-26T16:04:26.705Z,99225.95
2022-09-26T16:07:05.747Z,99225.98
2022-09-26T16:09:40.118Z,99224.58
2022-09-26T16:12:22.215Z,99223.89
2022-09-26T16:15:25.823Z,99226.61
2022-09-26T16:17:55.829Z,99222.02
2022-09-26T16:20:30.651Z,99217.95
2022-09-26T16:23:05.144Z,99215.14
2022-09-26T16:25:40.133Z,99214.47
2022-09-26T16:28:10.223Z,99216.95
2022-09-26T16:30:45.620Z,99213.59
2022-09-26T16:33:35.189Z,99212.18
2022-09-26T16:36:34.749Z,99220.20
2022-09-26T16:39:06.901Z,99223.40
2022-09-26T16:44:35.294Z,99215.05
2022-09-26T16:47:26.821Z,99222.88
2022-09-26T16:49:55.491Z,99217.20
2022-09-26T16:52:37.222Z,99216.31
2022-09-26T16:55:07.727Z,99222.02
2022-09-26T16:58:01.579Z,99221.65
2022-09-26T17:00:52.427Z,99220.23
2022-09-26T17:03:31.066Z,99215.08
2022-09-26T17:06:01.574Z,99209.95
2022-09-26T17:08:30.259Z,99211.73
2022-09-26T17:11:03.966Z,99211.02
2022-09-26T17:13:36.514Z,99216.88
2022-09-26T17:16:06.423Z,99220.42
2022-09-26T17:18:37.890Z,99222.20
2022-09-26T17:21:05.725Z,99222.57
2022-09-26T17:23:41.528Z,99220.61
2022-09-26T17:26:21.241Z,99222.20
2022-09-26T17:28:50.706Z,99221.33
2022-09-26T17:31:19.374Z,99220.96
2022-09-26T17:33:49.639Z,99217.57
2022-09-26T17:36:25.845Z,99217.57
2022-09-26T17:38:54.272Z,99214.73
2022-09-26T17:41:22.619Z,99213.83
2022-09-26T17:43:59.463Z,99221.08
2022-09-26T17:46:27.212Z,99220.35
2022-09-26T17:48:55.629Z,99225.13
2022-09-26T17:51:23.544Z,99224.41
2022-09-26T17:53:51.999Z,99228.14
2022-09-26T17:56:19.981Z,99224.58
2022-09-26T17:58:48.337Z,99224.77
2022-09-26T18:01:22.715Z,99221.04
2022-09-26T18:03:55.245Z,99218.02
2022-09-26T18:06:26.692Z,99218.02
2022-09-26T18:08:59.221Z,99223.53
2022-09-26T18:11:26.813Z,99237.02
2022-09-26T18:13:54.996Z,99237.89
2022-09-26T18:16:23.032Z,99245.14
2022-09-26T18:18:50.809Z,99242.29
2022-09-26T18:21:19.534Z,99239.44
2022-09-26T18:23:55.913Z,99242.60
2022-09-26T18:26:28.673Z,99241.86
2022-09-26T18:28:58.063Z,99243.09
2022-09-26T18:31:31.816Z,99239.35
2022-09-26T18:34:00.712Z,99240.41
2022-09-26T18:36:32.490Z,99242.51
2022-09-26T18:38:59.981Z,99246.55
2022-09-26T18:41:28.399Z,99248.09
2022-09-26T18:44:00.254Z,99247.11
2022-09-26T18:46:28.943Z,99250.42
2022-09-26T18:48:59.848Z,99256.81
2022-09-26T18:51:27.941Z,99252.96
2022-09-26T18:53:55.510Z,99249.79
2022-09-26T18:56:41.485Z,99248.36
2022-09-26T18:59:10.372Z,99245.36
2022-09-26T19:01:40.958Z,99245.88
2022-09-26T19:04:22.511Z,99244.44
2022-09-26T19:07:00.470Z,99238.05
2022-09-26T19:09:33.818Z,99234.31
2022-09-26T19:12:02.250Z,99231.99
2022-09-26T19:14:31.000Z,99223.67
2022-09-26T19:16:58.781Z,99217.83
2022-09-26T19:19:28.231Z,99219.83
2022-09-26T19:21:59.657Z,99211.92
2022-09-26T19:24:31.901Z,99211.05
2022-09-26T19:27:01.859Z,99210.71
2022-09-26T19:29:47.053Z,99207.70
2022-09-26T19:32:23.349Z,99208.41
2022-09-26T19:35:00.234Z,99204.91
2022-09-26T19:37:28.121Z,99208.98
2022-09-26T19:39:57.666Z,99211.80
2022-09-26T19:42:25.971Z,99216.38
2022-09-26T19:44:53.061Z,99213.37
2022-09-26T19:47:23.327Z,99214.22
2022-09-26T19:49:52.423Z,99213.30
2022-09-26T19:52:22.035Z,99214.54
2022-09-26T19:54:49.314Z,99216.14
2022-09-26T19:57:19.129Z,99210.13
2022-09-26T19:59:48.103Z,99205.52
2022-09-26T20:02:21.066Z,99206.42
2022-09-26T20:04:48.723Z,99201.80
2022-09-26T20:07:18.936Z,99208.35
2022-09-26T20:09:46.884Z,99208.55
2022-09-26T20:12:15.199Z,99203.63
2022-09-26T20:14:42.408Z,99201.84
2022-09-26T20:17:41.644Z,99201.66
2022-09-26T20:20:17.602Z,99204.46
2022-09-26T20:22:46.155Z,99201.62
2022-09-26T20:25:27.090Z,99197.55
2022-09-26T20:27:56.852Z,99195.94
2022-09-26T20:30:44.229Z,99194.87
2022-09-26T20:33:12.989Z,99192.53
2022-09-26T20:35:47.575Z,99189.17
2022-09-26T20:38:25.541Z,99187.40
2022-09-26T20:41:12.101Z,99185.61
2022-09-26T20:44:17.649Z,99185.06
2022-09-26T20:46:52.364Z,99189.27
2022-09-26T20:49:23.140Z,99190.15
2022-09-26T20:51:51.237Z,99189.76
2022-09-26T20:54:36.770Z,99186.88
2022-09-26T20:57:03.725Z,99184.68
2022-09-26T20:59:34.638Z,99182.55
2022-09-26T21:02:20.908Z,99178.86
2022-09-26T21:04:48.464Z,99177.85
2022-09-26T21:07:16.248Z,99179.63
2022-09-26T21:09:44.660Z,99175.37
2022-09-26T21:12:16.961Z,99171.83
2022-09-26T21:14:44.439Z,99173.43
2022-09-26T21:17:18.784Z,99171.08
2022-09-26T21:19:46.645Z,99170.18
2022-09-26T21:22:14.132Z,99169.14
2022-09-26T21:24:44.897Z,99164.05
2022-09-26T21:27:12.536Z,99163.55
2022-09-26T21:29:40.774Z,99161.77
2022-09-26T21:32:11.797Z,99158.08
2022-09-26T21:34:38.917Z,99159.83
2022-09-26T21:37:09.803Z,99159.13
2022-09-26T21:39:40.946Z,99161.21
2022-09-26T21:42:08.161Z,99158.02
2022-09-26T21:44:41.016Z,99150.13
2022-09-26T21:47:08.306Z,99152.11
2022-09-26T21:49:35.282Z,99147.88
2022-09-26T21:52:10.687Z,99149.81
2022-09-26T21:54:42.495Z,99153.18
2022-09-26T21:57:14.213Z,99150.32
2022-09-26T21:59:42.378Z,99147.82
2022-09-26T22:02:09.835Z,99143.36
2022-09-26T22:04:36.753Z,99141.37
2022-09-26T22:07:03.947Z,99142.06
2022-09-26T22:09:31.111Z,99141.94
2022-09-26T22:11:59.035Z,99145.52
2022-09-26T22:14:26.162Z,99149.55
2022-09-26T22:16:53.570Z,99147.56
2022-09-26T22:19:21.281Z,99147.34
2022-09-26T22:21:48.224Z,99142.54
2022-09-26T22:24:15.271Z,99142.13
2022-09-26T22:26:42.829Z,99142.99
2022-09-26T22:29:11.090Z,99141.05
2022-09-26T22:31:38.538Z,99140.54
2022-09-26T22:34:06.298Z,99135.77
2022-09-26T22:36:34.688Z,99133.64
2022-09-26T22:39:02.884Z,99132.36
2022-09-26T22:41:31.224Z,99133.58
2022-09-26T22:43:59.656Z,99128.64
2022-09-26T22:46:26.782Z,99126.39
2022-09-26T22:48:54.446Z,99120.89
2022-09-26T22:51:21.832Z,99124.58
2022-09-26T22:53:48.883Z,99121.77
2022-09-26T22:56:16.269Z,99119.48
2022-09-26T22:58:49.474Z,99111.54
2022-09-26T23:01:28.078Z,99110.79
2022-09-26T23:03:57.269Z,99104.90
2022-09-26T23:06:24.778Z,99104.54
2022-09-26T23:08:51.946Z,99104.35
2022-09-26T23:11:19.875Z,99102.04
2022-09-26T23:13:50.341Z,99099.21
2022-09-26T23:16:22.484Z,99102.88
2022-09-26T23:18:50.619Z,99101.07
2022-09-26T23:21:23.767Z,99099.48
2022-09-26T23:23:54.610Z,99097.72
2022-09-26T23:26:29.627Z,99095.28
2022-09-26T23:28:58.005Z,99093.73
2022-09-26T23:31:26.395Z,99096.57
2022-09-26T23:33:54.423Z,99092.70
2022-09-26T23:36:22.737Z,99094.13
2022-09-26T23:38:50.008Z,99085.48
2022-09-26T23:41:17.573Z,99084.41
2022-09-26T23:43:45.987Z,99083.69
2022-09-26T23:46:13.270Z,99085.61
2022-09-26T23:48:40.671Z,99083.30
2022-09-26T23:51:08.373Z,99084.89
2022-09-26T23:53:35.323Z,99085.96
2022-09-26T23:56:13.670Z,99088.45
2022-09-26T23:58:41.633Z,99087.92
